createdAt,value
2018-07-07T00:01:30.706Z,2.40
2018-07-07T00:04:00.316Z,4.63
2018-07-07T00:06:30.671Z,3.27
2018-07-07T00:09:00.056Z,2.80
2018-07-07T00:11:29.174Z,2.73
2018-07-07T00:13:58.739Z,2.87
2018-07-07T00:16:29.371Z,2.70
2018-07-07T00:18:59.077Z,2.60
2018-07-07T00:21:29.302Z,2.60
2018-07-07T00:23:58.439Z,2.60
2018-07-07T00:26:27.708Z,3.00
2018-07-07T00:28:57.207Z,2.90
2018-07-07T00:31:26.325Z,3.20
2018-07-07T00:33:55.313Z,3.07
2018-07-07T00:36:24.523Z,2.67
2018-07-07T00:38:53.614Z,2.80
2018-07-07T00:41:22.988Z,3.63
2018-07-07T00:43:54.300Z,3.63
2018-07-07T00:46:23.638Z,3.03
2018-07-07T00:48:52.909Z,2.70
2018-07-07T00:51:22.638Z,2.67
2018-07-07T00:53:51.721Z,2.50
2018-07-07T00:56:20.986Z,3.73
2018-07-07T00:58:50.353Z,3.10
2018-07-07T01:01:23.170Z,2.87
2018-07-07T01:03:52.470Z,3.27
2018-07-07T01:06:28.143Z,2.63
2018-07-07T01:08:58.038Z,2.97
2018-07-07T01:11:28.314Z,2.90
2018-07-07T01:13:57.517Z,3.00
2018-07-07T01:16:26.706Z,3.80
2018-07-07T01:18:55.987Z,3.93
2018-07-07T01:21:25.238Z,2.80
2018-07-07T01:23:54.567Z,3.40
2018-07-07T01:26:24.358Z,3.47
2018-07-07T01:28:53.706Z,3.40
2018-07-07T01:31:22.726Z,2.90
2018-07-07T01:33:51.793Z,3.10
2018-07-07T01:36:21.098Z,3.40
2018-07-07T01:38:50.393Z,3.10
2018-07-07T01:41:19.605Z,3.30
2018-07-07T01:43:49.006Z,2.87
2018-07-07T01:46:18.214Z,4.37
2018-07-07T01:48:47.419Z,3.33
2018-07-07T01:51:16.710Z,2.77
2018-07-07T01:53:46.350Z,3.10
2018-07-07T01:56:15.546Z,3.80
2018-07-07T01:58:44.678Z,3.33
2018-07-07T02:01:13.704Z,3.97
2018-07-07T02:03:42.934Z,3.77
2018-07-07T02:06:12.111Z,3.30
2018-07-07T02:08:41.285Z,3.87
2018-07-07T02:11:10.311Z,2.93
2018-07-07T02:13:39.333Z,3.80
2018-07-07T02:16:08.822Z,3.40
2018-07-07T02:18:37.946Z,3.20
2018-07-07T02:21:07.266Z,3.40
2018-07-07T02:23:36.327Z,3.50
2018-07-07T02:26:05.642Z,3.17
2018-07-07T02:28:34.960Z,4.47
2018-07-07T02:31:04.377Z,4.20
2018-07-07T02:33:33.350Z,3.07
2018-07-07T02:36:02.623Z,3.53
2018-07-07T02:38:31.970Z,3.30
2018-07-07T02:41:01.072Z,2.90
2018-07-07T02:43:30.326Z,3.10
2018-07-07T02:45:59.683Z,3.70
2018-07-07T02:48:28.937Z,3.47
2018-07-07T02:50:58.216Z,3.30
2018-07-07T02:53:27.426Z,4.40
2018-07-07T02:55:56.466Z,3.47
2018-07-07T02:58:25.718Z,3.67
2018-07-07T03:00:55.075Z,3.30
2018-07-07T03:03:24.711Z,3.67
2018-07-07T03:05:53.786Z,3.30
2018-07-07T03:08:22.827Z,3.83
2018-07-07T03:10:52.079Z,4.43
2018-07-07T03:13:21.557Z,4.07
2018-07-07T03:15:50.906Z,3.50
2018-07-07T03:18:20.059Z,4.20
2018-07-07T03:20:50.196Z,3.27
2018-07-07T03:23:22.313Z,3.47
2018-07-07T03:25:51.475Z,4.70
2018-07-07T03:28:27.130Z,3.93
2018-07-07T03:30:56.542Z,3.63
2018-07-07T03:33:25.674Z,4.07
2018-07-07T03:35:54.790Z,3.47
2018-07-07T03:38:23.947Z,4.17
2018-07-07T03:40:53.205Z,3.70
2018-07-07T03:43:22.370Z,4.10
2018-07-07T03:45:51.620Z,3.63
2018-07-07T03:48:20.740Z,5.33
2018-07-07T03:50:50.074Z,3.93
2018-07-07T03:53:19.366Z,3.80
2018-07-07T03:55:49.642Z,4.80
2018-07-07T03:58:21.036Z,4.20
2018-07-07T04:03:46.191Z,4.00
2018-07-07T04:06:15.713Z,4.03
2018-07-07T04:08:44.840Z,4.07
2018-07-07T04:11:14.179Z,3.90
2018-07-07T04:13:43.475Z,3.53
2018-07-07T04:16:12.590Z,4.00
2018-07-07T04:18:41.778Z,4.20
2018-07-07T04:21:10.966Z,3.50
2018-07-07T04:23:40.485Z,4.00
2018-07-07T04:26:09.786Z,3.63
2018-07-07T04:28:38.977Z,4.40
2018-07-07T04:31:08.065Z,3.93
2018-07-07T04:33:37.248Z,3.50
2018-07-07T04:36:06.266Z,4.23
2018-07-07T04:38:35.492Z,4.67
2018-07-07T04:41:04.661Z,4.53
2018-07-07T04:43:33.866Z,3.53
2018-07-07T04:46:03.213Z,4.00
2018-07-07T04:48:32.337Z,4.00
2018-07-07T04:51:01.458Z,3.87
2018-07-07T04:53:30.707Z,4.20
2018-07-07T04:56:02.859Z,3.50
2018-07-07T04:58:32.107Z,3.90
2018-07-07T05:01:01.200Z,4.40
2018-07-07T05:03:30.476Z,3.83
2018-07-07T05:05:59.739Z,4.00
2018-07-07T05:08:28.875Z,4.90
2018-07-07T05:10:58.166Z,3.90
2018-07-07T05:13:27.302Z,4.00
2018-07-07T05:15:56.395Z,3.43
2018-07-07T05:18:25.575Z,3.90
2018-07-07T05:20:54.803Z,4.20
2018-07-07T05:23:23.994Z,3.73
2018-07-07T05:25:53.471Z,3.93
2018-07-07T05:28:23.510Z,3.20
2018-07-07T05:30:52.714Z,4.20
2018-07-07T05:33:22.206Z,3.70
2018-07-07T05:35:51.450Z,4.07
2018-07-07T05:38:20.749Z,4.30
2018-07-07T05:40:49.855Z,3.90
2018-07-07T05:43:18.998Z,3.20
2018-07-07T05:45:48.223Z,3.70
2018-07-07T05:48:17.395Z,4.10
2018-07-07T05:50:46.642Z,3.43
2018-07-07T05:53:15.906Z,3.60
2018-07-07T05:55:45.138Z,4.30
2018-07-07T05:58:14.275Z,4.33
2018-07-07T06:00:43.506Z,4.43
2018-07-07T06:03:12.762Z,3.93
2018-07-07T06:05:41.807Z,3.60
2018-07-07T06:08:11.094Z,3.90
2018-07-07T06:10:40.400Z,4.77
2018-07-07T06:13:09.656Z,3.30
2018-07-07T06:15:38.895Z,3.87
2018-07-07T06:18:08.084Z,3.70
2018-07-07T06:20:37.393Z,3.30
2018-07-07T06:23:06.483Z,3.10
2018-07-07T06:25:35.783Z,3.90
2018-07-07T06:28:05.067Z,4.03
2018-07-07T06:30:34.415Z,3.63
2018-07-07T06:33:03.627Z,4.00
2018-07-07T06:35:32.903Z,3.80
2018-07-07T06:38:02.081Z,3.33
2018-07-07T06:40:31.235Z,4.10
2018-07-07T06:43:00.365Z,3.87
2018-07-07T06:45:29.839Z,3.70
2018-07-07T06:48:00.131Z,3.67
2018-07-07T06:50:29.586Z,3.73
2018-07-07T06:52:59.322Z,3.63
2018-07-07T06:55:30.304Z,3.40
2018-07-07T06:57:59.445Z,3.73
2018-07-07T07:00:28.634Z,3.43
2018-07-07T07:02:57.990Z,3.57
2018-07-07T07:05:27.250Z,3.80
2018-07-07T07:07:56.357Z,3.70
2018-07-07T07:10:26.619Z,3.97
2018-07-07T07:12:55.895Z,3.53
2018-07-07T07:15:25.315Z,3.50
2018-07-07T07:17:54.606Z,2.93
2018-07-07T07:20:24.319Z,2.90
2018-07-07T07:22:53.964Z,4.13
2018-07-07T07:25:23.723Z,3.37
2018-07-07T07:27:53.450Z,2.97
2018-07-07T07:30:22.730Z,3.30
2018-07-07T07:32:52.021Z,3.33
2018-07-07T07:35:21.811Z,4.17
2018-07-07T07:37:51.106Z,3.73
2018-07-07T07:40:20.784Z,3.40
2018-07-07T07:42:51.075Z,3.83
2018-07-07T07:45:24.583Z,3.50
2018-07-07T07:47:54.185Z,3.50
2018-07-07T07:50:23.879Z,3.90
2018-07-07T07:52:53.335Z,3.97
2018-07-07T07:55:22.779Z,3.30
2018-07-07T07:57:53.347Z,3.60
2018-07-07T08:00:24.103Z,3.80
2018-07-07T08:02:55.126Z,2.83
2018-07-07T08:05:25.649Z,3.60
2018-07-07T08:07:55.705Z,3.10
2018-07-07T08:10:26.119Z,3.90
2018-07-07T08:12:58.788Z,3.70
2018-07-07T08:15:28.784Z,3.37
2018-07-07T08:17:59.327Z,3.50
2018-07-07T08:20:28.437Z,4.00
2018-07-07T08:22:57.617Z,2.80
2018-07-07T08:25:29.219Z,3.67
2018-07-07T08:27:59.203Z,3.33
2018-07-07T08:30:28.402Z,3.43
2018-07-07T08:32:58.976Z,3.50
2018-07-07T08:35:29.810Z,3.20
2018-07-07T08:38:04.264Z,2.93
2018-07-07T08:40:35.835Z,3.13
2018-07-07T08:43:07.093Z,3.60
2018-07-07T08:45:38.364Z,2.67
2018-07-07T08:48:08.244Z,3.33
2018-07-07T08:50:37.519Z,2.93
2018-07-07T08:53:06.832Z,2.80
2018-07-07T08:55:37.052Z,3.30
2018-07-07T08:58:08.459Z,3.10
2018-07-07T09:00:39.635Z,3.73
2018-07-07T09:03:12.215Z,2.97
2018-07-07T09:05:43.362Z,3.20
2018-07-07T09:08:15.791Z,3.10
2018-07-07T09:10:45.908Z,3.00
2018-07-07T09:13:17.050Z,3.20
2018-07-07T09:15:50.350Z,3.00
2018-07-07T09:18:23.856Z,3.40
2018-07-07T09:20:53.939Z,3.53
2018-07-07T09:23:29.643Z,3.33
2018-07-07T09:26:00.291Z,3.63
2018-07-07T09:28:31.487Z,3.10
2018-07-07T09:31:01.345Z,3.07
2018-07-07T09:33:31.512Z,2.43
2018-07-07T09:36:06.979Z,3.17
2018-07-07T09:38:39.896Z,2.60
2018-07-07T09:41:11.278Z,2.87
2018-07-07T09:43:41.976Z,3.17
2018-07-07T09:46:17.815Z,3.17
2018-07-07T09:48:49.406Z,2.17
2018-07-07T09:51:25.642Z,3.50
2018-07-07T09:53:59.643Z,2.97
2018-07-07T09:56:30.736Z,2.70
2018-07-07T09:59:01.521Z,2.70
2018-07-07T10:01:34.687Z,2.67
2018-07-07T10:04:08.822Z,2.47
2018-07-07T10:06:42.382Z,1.80
2018-07-07T10:09:15.578Z,2.17
2018-07-07T10:11:50.653Z,2.57
2018-07-07T10:14:29.685Z,2.10
2018-07-07T10:17:01.252Z,2.37
2018-07-07T10:19:34.646Z,2.07
2018-07-07T10:22:08.218Z,2.70
2018-07-07T10:24:43.329Z,2.13
2018-07-07T10:27:14.152Z,2.37
2018-07-07T10:29:46.082Z,3.20
2018-07-07T10:32:15.929Z,2.30
2018-07-07T10:34:49.850Z,2.07
2018-07-07T10:37:22.537Z,2.23
2018-07-07T10:40:01.670Z,2.37
2018-07-07T10:42:37.254Z,2.07
2018-07-07T10:45:08.284Z,2.77
2018-07-07T10:47:39.409Z,2.67
2018-07-07T10:50:10.079Z,2.40
2018-07-07T10:52:40.427Z,1.90
2018-07-07T10:55:12.910Z,2.00
2018-07-07T10:57:46.074Z,2.13
2018-07-07T11:00:18.820Z,2.33
2018-07-07T11:02:49.684Z,2.80
2018-07-07T11:05:19.579Z,2.30
2018-07-07T11:07:52.737Z,1.83
2018-07-07T11:10:22.831Z,2.00
2018-07-07T11:12:53.271Z,2.17
2018-07-07T11:15:26.424Z,2.07
2018-07-07T11:18:04.235Z,2.30
2018-07-07T11:20:38.774Z,2.47
2018-07-07T11:23:13.293Z,1.70
2018-07-07T11:25:44.349Z,2.10
2018-07-07T11:28:14.461Z,1.90
2018-07-07T11:30:44.151Z,2.00
2018-07-07T11:33:19.502Z,1.90
2018-07-07T11:35:50.205Z,1.50
2018-07-07T11:38:20.814Z,1.70
2018-07-07T11:40:54.323Z,1.90
2018-07-07T11:43:34.464Z,1.60
2018-07-07T11:46:06.938Z,1.73
2018-07-07T11:48:39.483Z,1.53
2018-07-07T11:51:11.593Z,1.50
2018-07-07T11:53:45.424Z,1.63
2018-07-07T11:56:16.225Z,1.70
2018-07-07T11:58:48.256Z,1.93
2018-07-07T12:01:20.886Z,1.83
2018-07-07T12:03:52.478Z,1.50
2018-07-07T12:06:28.133Z,1.33
2018-07-07T12:09:01.771Z,1.50
2018-07-07T12:11:32.737Z,1.20
2018-07-07T12:14:03.581Z,1.40
2018-07-07T12:16:40.161Z,1.50
2018-07-07T12:19:10.061Z,1.60
2018-07-07T12:21:42.255Z,1.27
2018-07-07T12:24:16.662Z,1.67
2018-07-07T12:26:54.062Z,1.60
2018-07-07T12:29:37.189Z,1.30
2018-07-07T12:32:16.421Z,1.87
2018-07-07T12:34:50.230Z,1.20
2018-07-07T12:37:34.546Z,2.03
2018-07-07T12:40:06.563Z,1.77
2018-07-07T12:42:36.704Z,1.60
2018-07-07T12:45:12.042Z,1.50
2018-07-07T12:47:47.805Z,1.57
2018-07-07T12:50:25.815Z,1.53
2018-07-07T12:53:00.230Z,1.50
2018-07-07T12:55:35.632Z,1.50
2018-07-07T12:58:11.063Z,1.57
2018-07-07T13:00:46.005Z,1.33
2018-07-07T13:03:15.724Z,1.67
2018-07-07T13:05:47.938Z,1.10
2018-07-07T13:08:21.068Z,1.70
2018-07-07T13:10:58.013Z,1.40
2018-07-07T13:13:28.874Z,1.40
2018-07-07T13:16:03.865Z,1.50
2018-07-07T13:18:35.253Z,1.53
2018-07-07T13:21:11.635Z,1.50
2018-07-07T13:23:43.304Z,1.20
2018-07-07T13:26:16.815Z,1.30
2018-07-07T13:28:52.501Z,1.60
2018-07-07T13:31:25.155Z,1.30
2018-07-07T13:34:01.395Z,1.30
2018-07-07T13:39:15.262Z,1.27
2018-07-07T13:41:53.648Z,1.37
2018-07-07T13:44:25.934Z,1.30
2018-07-07T13:47:08.625Z,1.40
2018-07-07T13:52:43.945Z,1.30
2018-07-07T13:55:19.385Z,1.90
2018-07-07T13:57:53.927Z,1.30
2018-07-07T14:00:35.457Z,1.30
2018-07-07T14:03:08.720Z,1.87
2018-07-07T14:05:43.962Z,1.20
2018-07-07T14:08:22.370Z,1.33
2018-07-07T14:10:52.400Z,1.23
2018-07-07T14:13:28.569Z,1.67
2018-07-07T14:16:01.870Z,1.27
2018-07-07T14:18:34.024Z,1.33
2018-07-07T14:21:05.584Z,1.50
2018-07-07T14:23:38.245Z,1.20
2018-07-07T14:26:14.273Z,1.30
2018-07-07T14:28:45.850Z,1.30
2018-07-07T14:31:23.151Z,1.43
2018-07-07T14:34:04.807Z,1.43
2018-07-07T14:36:38.744Z,1.33
2018-07-07T14:39:12.246Z,1.40
2018-07-07T14:41:53.551Z,1.87
2018-07-07T14:44:30.696Z,1.57
2018-07-07T14:47:03.091Z,1.90
2018-07-07T14:49:37.845Z,1.50
2018-07-07T14:52:21.096Z,1.47
2018-07-07T14:55:02.295Z,1.83
2018-07-07T14:57:42.138Z,1.80
2018-07-07T15:00:20.927Z,2.00
2018-07-07T15:02:58.637Z,1.70
2018-07-07T15:05:30.394Z,1.47
2018-07-07T15:08:15.073Z,1.57
2018-07-07T15:11:03.597Z,1.80
2018-07-07T15:13:40.932Z,1.80
2018-07-07T15:16:14.123Z,2.20
2018-07-07T15:18:48.388Z,1.67
2018-07-07T15:21:23.271Z,1.97
2018-07-07T15:23:57.029Z,1.63
2018-07-07T15:26:34.617Z,1.83
2018-07-07T15:29:10.373Z,2.73
2018-07-07T15:31:49.072Z,1.73
2018-07-07T15:34:19.490Z,1.87
2018-07-07T15:37:00.844Z,1.73
2018-07-07T15:39:41.026Z,1.87
2018-07-07T15:42:11.044Z,2.27
2018-07-07T15:44:44.939Z,1.60
2018-07-07T15:47:14.757Z,1.83
2018-07-07T15:49:45.855Z,1.93
2018-07-07T15:52:16.009Z,2.23
2018-07-07T15:54:47.124Z,1.90
2018-07-07T15:57:20.295Z,2.20
2018-07-07T15:59:50.747Z,1.47
2018-07-07T16:02:26.145Z,1.70
2018-07-07T16:04:58.124Z,1.77
2018-07-07T16:07:30.336Z,1.67
2018-07-07T16:10:03.065Z,2.57
2018-07-07T16:12:33.617Z,1.90
2018-07-07T16:15:12.140Z,1.57
2018-07-07T16:17:49.319Z,1.87
2018-07-07T16:20:21.227Z,2.00
2018-07-07T16:22:53.543Z,2.30
2018-07-07T16:25:36.903Z,1.47
2018-07-07T16:28:13.078Z,2.47
2018-07-07T16:30:50.891Z,1.40
2018-07-07T16:33:25.325Z,2.10
2018-07-07T16:35:57.584Z,2.13
2018-07-07T16:38:30.234Z,1.80
2018-07-07T16:41:18.923Z,2.17
2018-07-07T16:43:52.254Z,1.93
2018-07-07T16:46:28.289Z,2.07
2018-07-07T16:49:03.270Z,1.67
2018-07-07T16:51:38.505Z,1.57
2018-07-07T16:54:09.265Z,1.87
2018-07-07T16:59:34.598Z,1.87
2018-07-07T17:02:10.076Z,1.83
2018-07-07T17:04:41.720Z,2.43
2018-07-07T17:07:15.602Z,2.07
2018-07-07T17:09:47.228Z,1.93
2018-07-07T17:12:31.725Z,1.67
2018-07-07T17:15:06.442Z,1.80
2018-07-07T17:17:40.993Z,2.50
2018-07-07T17:20:14.441Z,1.57
2018-07-07T17:22:55.189Z,1.80
2018-07-07T17:30:54.750Z,2.07
2018-07-07T17:33:30.674Z,1.97
2018-07-07T17:36:07.274Z,2.10
2018-07-07T17:38:51.168Z,2.00
2018-07-07T17:41:29.664Z,2.43
2018-07-07T17:44:13.116Z,2.70
2018-07-07T17:46:46.711Z,2.17
2018-07-07T17:49:22.319Z,1.93
2018-07-07T17:54:37.213Z,3.07
2018-07-07T17:59:58.245Z,2.63
2018-07-07T18:05:19.470Z,2.10
2018-07-07T18:07:55.879Z,2.87
2018-07-07T18:10:34.371Z,1.93
2018-07-07T18:14:11.619Z,2.83
2018-07-07T18:16:48.841Z,2.17
2018-07-07T18:19:39.057Z,2.00
2018-07-07T18:22:19.780Z,2.30
2018-07-07T18:24:59.317Z,2.23
2018-07-07T18:27:41.064Z,2.87
2018-07-07T18:30:19.792Z,2.87
2018-07-07T18:32:53.022Z,2.37
2018-07-07T18:35:26.394Z,2.37
2018-07-07T18:38:01.393Z,2.10
2018-07-07T18:40:38.997Z,2.67
2018-07-07T18:43:13.672Z,2.27
2018-07-07T18:45:53.057Z,2.53
2018-07-07T18:48:23.240Z,2.00
2018-07-07T18:50:56.995Z,2.40
2018-07-07T18:53:37.531Z,2.73
2018-07-07T18:56:29.064Z,1.93
2018-07-07T18:59:06.278Z,2.60
2018-07-07T19:01:40.966Z,1.63
2018-07-07T19:04:20.458Z,1.90
2018-07-07T19:06:56.407Z,2.33
2018-07-07T19:09:32.574Z,2.17
2018-07-07T19:12:10.105Z,2.50
2018-07-07T19:14:45.686Z,2.23
2018-07-07T19:17:17.500Z,2.53
2018-07-07T19:19:56.719Z,2.00
2018-07-07T19:22:32.985Z,2.33
2018-07-07T19:25:11.535Z,2.40
2018-07-07T19:27:47.482Z,2.10
2018-07-07T19:30:19.256Z,2.90
2018-07-07T19:32:59.778Z,2.30
2018-07-07T19:35:37.275Z,2.13
2018-07-07T19:38:10.200Z,2.20
2018-07-07T19:43:19.717Z,2.60
2018-07-07T19:45:49.477Z,2.47
2018-07-07T19:48:26.925Z,2.00
2018-07-07T19:51:02.054Z,2.40
2018-07-07T19:53:39.159Z,3.40
2018-07-07T19:56:15.363Z,3.50
2018-07-07T19:58:47.533Z,2.90
2018-07-07T20:01:18.774Z,2.70
2018-07-07T20:03:55.566Z,2.83
2018-07-07T20:06:26.388Z,2.67
2018-07-07T20:08:59.679Z,2.53
2018-07-07T20:11:34.243Z,2.00
2018-07-07T20:14:04.941Z,2.43
2018-07-07T20:16:46.097Z,2.57
2018-07-07T20:19:28.054Z,2.43
2018-07-07T20:22:01.874Z,2.73
2018-07-07T20:24:38.780Z,2.47
2018-07-07T20:27:19.754Z,2.50
2018-07-07T20:29:52.105Z,2.40
2018-07-07T20:32:29.258Z,2.23
2018-07-07T20:35:04.691Z,2.60
2018-07-07T20:37:37.085Z,2.50
2018-07-07T20:40:14.326Z,2.37
2018-07-07T20:42:44.837Z,1.90
2018-07-07T20:45:15.620Z,2.93
2018-07-07T20:47:50.985Z,2.30
2018-07-07T20:50:21.805Z,2.40
2018-07-07T20:56:32.720Z,2.30
2018-07-07T20:59:02.530Z,2.43
2018-07-07T21:01:35.190Z,2.40
2018-07-07T21:04:05.512Z,2.13
2018-07-07T21:06:36.174Z,2.87
2018-07-07T21:09:08.352Z,2.10
2018-07-07T21:11:40.613Z,2.37
2018-07-07T21:14:15.226Z,2.40
2018-07-07T21:16:53.354Z,2.50
2018-07-07T21:19:24.645Z,2.20
2018-07-07T21:21:55.432Z,2.67
2018-07-07T21:24:31.611Z,2.40
2018-07-07T21:27:05.221Z,2.07
2018-07-07T21:29:47.378Z,2.90
2018-07-07T21:32:25.288Z,2.30
2018-07-07T21:35:04.452Z,2.23
2018-07-07T21:37:37.012Z,2.53
2018-07-07T21:40:14.555Z,3.03
2018-07-07T21:42:47.359Z,2.60
2018-07-07T21:45:20.184Z,2.07
2018-07-07T21:47:59.292Z,2.67
2018-07-07T21:50:44.376Z,2.40
2018-07-07T21:53:18.978Z,2.77
2018-07-07T21:55:51.271Z,1.90
2018-07-07T21:58:29.632Z,2.30
2018-07-07T22:01:17.734Z,2.43
2018-07-07T22:03:53.992Z,2.60
2018-07-07T22:06:30.263Z,2.50
2018-07-07T22:09:03.788Z,2.50
2018-07-07T22:11:35.486Z,2.40
2018-07-07T22:14:06.305Z,2.10
2018-07-07T22:16:37.846Z,2.20
2018-07-07T22:19:10.131Z,2.37
2018-07-07T22:22:08.193Z,2.27
2018-07-07T22:24:42.557Z,3.10
2018-07-07T22:27:13.607Z,1.93
2018-07-07T22:29:43.462Z,2.90
2018-07-07T22:32:21.626Z,2.60
2018-07-07T22:34:53.155Z,2.37
2018-07-07T22:37:22.739Z,2.33
2018-07-07T22:39:53.319Z,3.00
2018-07-07T22:42:23.666Z,2.23
2018-07-07T22:44:54.084Z,2.30
2018-07-07T22:47:28.812Z,2.23
2018-07-07T22:49:58.454Z,2.83
2018-07-07T22:52:28.583Z,3.10
2018-07-07T22:54:59.497Z,2.33
2018-07-07T22:57:29.599Z,2.43
2018-07-07T23:00:02.642Z,2.30
2018-07-07T23:02:31.867Z,2.60
2018-07-07T23:05:01.551Z,2.47
2018-07-07T23:07:31.687Z,2.83
2018-07-07T23:10:08.165Z,2.37
2018-07-07T23:12:39.718Z,2.37
2018-07-07T23:15:10.647Z,2.60
2018-07-07T23:17:43.298Z,2.30
2018-07-07T23:20:12.519Z,2.10
2018-07-07T23:22:52.635Z,3.00
2018-07-07T23:25:22.101Z,2.37
2018-07-07T23:27:51.787Z,2.43
2018-07-07T23:30:21.637Z,2.50
2018-07-07T23:32:51.656Z,2.40
2018-07-07T23:35:20.777Z,2.50
2018-07-07T23:37:50.034Z,2.80
2018-07-07T23:40:19.046Z,3.00
2018-07-07T23:42:48.750Z,2.63
2018-07-07T23:45:18.112Z,2.43
2018-07-07T23:47:47.362Z,2.20
2018-07-07T23:50:16.683Z,2.40
2018-07-07T23:52:45.793Z,2.77
2018-07-07T23:55:15.028Z,2.33
2018-07-07T23:57:44.160Z,2.43
